createdAt,value
2018-12-10T00:01:51.229Z,9.53
2018-12-10T00:04:34.734Z,9.67
2018-12-10T00:07:16.724Z,8.77
2018-12-10T00:10:01.801Z,6.50
2018-12-10T00:19:04.848Z,12.67
2018-12-10T00:21:49.342Z,9.30
2018-12-10T00:28:20.753Z,7.20
2018-12-10T00:31:13.970Z,11.03
2018-12-10T00:33:56.358Z,11.57
2018-12-10T00:39:41.202Z,8.80
2018-12-10T00:42:28.166Z,8.97
2018-12-10T00:45:08.570Z,11.27
2018-12-10T00:50:52.094Z,8.13
2018-12-10T00:53:38.044Z,12.33
2018-12-10T01:05:18.892Z,10.70
2018-12-10T01:08:07.936Z,9.47
2018-12-10T01:11:01.177Z,7.23
2018-12-10T01:13:38.814Z,7.13
2018-12-10T01:19:20.568Z,13.20
2018-12-10T01:21:59.721Z,12.57
2018-12-10T01:27:33.602Z,7.73
2018-12-10T01:33:10.433Z,5.40
2018-12-10T01:38:53.899Z,8.90
2018-12-10T01:41:43.287Z,8.97
2018-12-10T01:44:36.244Z,6.97
2018-12-10T01:47:38.186Z,7.30
2018-12-10T01:50:20.795Z,6.13
2018-12-10T01:52:59.059Z,6.73
2018-12-10T01:55:35.807Z,8.43
2018-12-10T01:58:10.120Z,11.47
2018-12-10T02:00:43.653Z,6.50
2018-12-10T02:03:16.696Z,7.23
2018-12-10T02:09:23.837Z,6.93
2018-12-10T02:11:58.857Z,8.43
2018-12-10T02:14:33.055Z,9.13
2018-12-10T02:17:10.268Z,10.67
2018-12-10T02:20:29.847Z,7.67
2018-12-10T02:23:03.669Z,11.17
2018-12-10T02:25:36.524Z,12.13
2018-12-10T02:28:10.018Z,12.00
2018-12-10T02:30:42.929Z,11.63
2018-12-10T02:33:16.062Z,12.27
2018-12-10T02:35:48.436Z,11.40
2018-12-10T02:38:21.569Z,8.20
2018-12-10T02:40:55.869Z,7.57
2018-12-10T02:43:30.557Z,8.30
2018-12-10T02:46:02.945Z,8.43
2018-12-10T02:48:36.208Z,7.53
2018-12-10T02:51:10.033Z,9.70
2018-12-10T02:53:44.328Z,9.30
2018-12-10T02:56:20.568Z,11.20
2018-12-10T02:58:53.699Z,13.47
2018-12-10T03:01:26.903Z,10.77
2018-12-10T03:04:00.081Z,9.87
2018-12-10T03:06:32.426Z,15.57
2018-12-10T03:09:05.492Z,13.73
2018-12-10T03:11:37.884Z,14.93
2018-12-10T03:14:12.086Z,11.07
2018-12-10T03:16:44.539Z,10.53
2018-12-10T03:19:18.703Z,16.30
2018-12-10T03:21:51.044Z,12.23
2018-12-10T03:24:39.836Z,13.83
2018-12-10T03:27:12.115Z,10.43
2018-12-10T03:29:45.569Z,14.87
2018-12-10T03:32:17.896Z,10.20
2018-12-10T03:34:51.011Z,16.23
2018-12-10T03:40:06.375Z,11.40
2018-12-10T03:42:38.866Z,9.57
2018-12-10T03:45:11.729Z,13.00
2018-12-10T03:47:44.064Z,13.73
2018-12-10T03:50:17.187Z,13.17
2018-12-10T03:52:49.520Z,12.23
2018-12-10T03:55:23.276Z,15.30
2018-12-10T03:57:56.600Z,14.43
2018-12-10T04:04:01.611Z,17.17
2018-12-10T04:06:33.784Z,13.43
2018-12-10T04:09:07.283Z,12.50
2018-12-10T04:11:39.470Z,11.53
2018-12-10T04:14:13.932Z,11.27
2018-12-10T04:16:46.326Z,15.73
2018-12-10T04:19:19.605Z,16.17
2018-12-10T04:21:52.028Z,14.53
2018-12-10T04:24:24.784Z,14.47
2018-12-10T04:26:57.027Z,12.87
2018-12-10T04:29:29.421Z,14.20
2018-12-10T04:32:01.628Z,14.07
2018-12-10T04:34:34.222Z,14.83
2018-12-10T04:37:07.522Z,12.20
2018-12-10T04:39:39.829Z,16.40
2018-12-10T04:42:12.168Z,19.40
2018-12-10T04:44:44.358Z,16.87
2018-12-10T04:47:16.537Z,17.43
2018-12-10T04:49:48.739Z,14.23
2018-12-10T04:52:20.942Z,14.93
2018-12-10T04:54:53.140Z,14.60
2018-12-10T04:57:25.616Z,17.77
2018-12-10T04:59:57.824Z,15.40
2018-12-10T05:02:30.087Z,16.33
2018-12-10T05:05:02.168Z,15.80
2018-12-10T05:07:34.456Z,18.23
2018-12-10T05:10:07.061Z,16.93
2018-12-10T05:12:39.178Z,15.07
2018-12-10T05:15:11.323Z,19.77
2018-12-10T05:17:43.576Z,17.97
2018-12-10T05:20:15.687Z,19.73
2018-12-10T05:22:47.856Z,18.70
2018-12-10T05:25:20.252Z,14.63
2018-12-10T05:27:54.335Z,18.00
2018-12-10T05:30:26.452Z,17.70
2018-12-10T05:32:58.576Z,18.53
2018-12-10T05:35:32.760Z,19.63
2018-12-10T05:38:35.213Z,19.10
2018-12-10T05:41:07.395Z,15.27
2018-12-10T05:43:39.542Z,17.13
2018-12-10T05:46:11.717Z,17.27
2018-12-10T05:48:43.847Z,17.57
2018-12-10T05:51:15.982Z,15.23
2018-12-10T05:53:48.091Z,18.47
2018-12-10T05:56:20.266Z,20.87
2018-12-10T05:58:52.411Z,16.50
2018-12-10T06:01:24.660Z,19.17
2018-12-10T06:03:56.788Z,13.50
2018-12-10T06:09:51.229Z,15.20
2018-12-10T06:12:24.244Z,14.67
2018-12-10T06:14:57.119Z,16.17
2018-12-10T06:17:31.106Z,14.30
2018-12-10T06:20:27.966Z,15.07
2018-12-10T06:23:00.210Z,14.47
2018-12-10T06:25:32.405Z,21.20
2018-12-10T06:28:05.470Z,16.07
2018-12-10T06:30:37.667Z,13.60
2018-12-10T06:37:06.631Z,16.20
2018-12-10T06:39:39.794Z,11.97
2018-12-10T06:42:12.119Z,13.60
2018-12-10T06:44:44.551Z,19.20
2018-12-10T06:47:16.997Z,16.23
2018-12-10T06:49:49.385Z,17.60
2018-12-10T06:52:21.776Z,17.00
2018-12-10T06:54:54.119Z,16.63
2018-12-10T06:57:26.521Z,16.17
2018-12-10T07:00:31.656Z,16.47
2018-12-10T07:03:03.894Z,16.97
2018-12-10T07:05:36.184Z,16.53
2018-12-10T07:08:08.414Z,15.87
2018-12-10T07:10:41.807Z,19.97
2018-12-10T07:13:14.124Z,16.37
2018-12-10T07:15:46.451Z,14.43
2018-12-10T07:18:18.721Z,14.50
2018-12-10T07:20:50.978Z,18.27
2018-12-10T07:26:44.781Z,21.27
2018-12-10T07:29:17.807Z,15.60
2018-12-10T07:31:50.752Z,16.87
2018-12-10T07:34:23.667Z,18.33
2018-12-10T07:36:56.485Z,18.30
2018-12-10T07:39:29.904Z,17.67
2018-12-10T07:42:03.224Z,19.23
2018-12-10T07:44:36.143Z,19.23
2018-12-10T07:47:09.017Z,20.27
2018-12-10T07:49:41.824Z,21.50
2018-12-10T07:55:35.246Z,23.53
2018-12-10T07:58:07.608Z,22.87
2018-12-10T08:00:39.967Z,22.90
2018-12-10T08:03:12.436Z,22.30
2018-12-10T08:05:45.927Z,24.97
2018-12-10T08:08:18.234Z,38.40
2018-12-10T08:10:50.685Z,21.47
2018-12-10T08:13:24.897Z,24.17
2018-12-10T08:15:57.207Z,20.17
2018-12-10T08:18:29.500Z,23.90
2018-12-10T08:21:34.694Z,26.07
2018-12-10T08:24:07.488Z,25.57
2018-12-10T08:26:41.146Z,26.73
2018-12-10T08:29:13.983Z,20.13
2018-12-10T08:31:46.743Z,25.50
2018-12-10T08:34:19.511Z,21.83
2018-12-10T08:36:53.186Z,26.70
2018-12-10T08:39:26.012Z,18.37
2018-12-10T08:41:58.955Z,19.60
2018-12-10T08:44:31.898Z,21.73
2018-12-10T08:47:05.135Z,25.77
2018-12-10T08:49:38.018Z,20.00
2018-12-10T08:52:40.947Z,20.60
2018-12-10T08:55:13.858Z,17.17
2018-12-10T08:57:47.072Z,19.17
2018-12-10T09:00:19.920Z,18.30
2018-12-10T09:02:52.651Z,16.40
2018-12-10T09:05:25.538Z,19.93
2018-12-10T09:08:00.984Z,16.43
2018-12-10T09:10:34.704Z,18.47
2018-12-10T09:13:07.789Z,16.90
2018-12-10T09:15:46.196Z,17.73
2018-12-10T09:18:25.656Z,13.03
2018-12-10T09:21:01.828Z,14.20
2018-12-10T09:23:36.336Z,14.60
2018-12-10T09:26:11.561Z,15.40
2018-12-10T09:28:48.494Z,14.80
2018-12-10T09:31:23.834Z,13.97
2018-12-10T09:33:59.866Z,14.40
2018-12-10T09:36:38.260Z,15.80
2018-12-10T09:39:20.610Z,13.47
2018-12-10T09:41:58.034Z,15.07
2018-12-10T09:44:35.332Z,14.83
2018-12-10T09:47:14.164Z,16.17
2018-12-10T09:49:51.269Z,13.93
2018-12-10T09:52:26.395Z,14.87
2018-12-10T09:55:02.109Z,13.87
2018-12-10T09:57:35.880Z,15.07
2018-12-10T10:00:10.950Z,13.67
2018-12-10T10:02:45.705Z,13.13
2018-12-10T10:05:21.533Z,18.30
2018-12-10T10:07:57.115Z,17.13
2018-12-10T10:10:31.421Z,16.07
2018-12-10T10:13:05.698Z,14.80
2018-12-10T10:15:40.288Z,13.30
2018-12-10T10:18:14.923Z,13.67
2018-12-10T10:20:50.558Z,15.03
2018-12-10T10:23:28.232Z,10.70
2018-12-10T10:26:03.606Z,13.10
2018-12-10T10:28:40.252Z,12.47
2018-12-10T10:31:15.194Z,14.43
2018-12-10T10:33:48.884Z,13.90
2018-12-10T10:36:24.013Z,13.70
2018-12-10T10:38:58.341Z,13.20
2018-12-10T10:41:32.573Z,13.83
2018-12-10T10:44:08.641Z,15.13
2018-12-10T10:46:42.884Z,11.13
2018-12-10T10:49:19.988Z,13.67
2018-12-10T10:51:54.892Z,11.53
2018-12-10T10:54:29.994Z,12.03
2018-12-10T10:57:04.513Z,17.37
2018-12-10T10:59:39.116Z,13.70
2018-12-10T11:02:17.329Z,15.50
2018-12-10T11:04:51.664Z,14.90
2018-12-10T11:07:27.523Z,12.87
2018-12-10T11:10:03.877Z,14.63
2018-12-10T11:12:39.615Z,13.93
2018-12-10T11:15:16.189Z,15.57
2018-12-10T11:17:52.617Z,14.57
2018-12-10T11:20:25.867Z,21.00
2018-12-10T11:22:58.857Z,21.30
2018-12-10T11:25:31.739Z,18.63
2018-12-10T11:28:04.632Z,19.17
2018-12-10T11:30:37.559Z,21.07
2018-12-10T11:33:10.447Z,21.13
2018-12-10T11:35:43.798Z,20.50
2018-12-10T11:38:16.574Z,20.73
2018-12-10T11:40:49.595Z,20.13
2018-12-10T11:43:22.342Z,20.37
2018-12-10T11:45:55.140Z,23.10
2018-12-10T11:48:28.525Z,23.53
2018-12-10T11:51:01.275Z,22.83
2018-12-10T11:53:34.193Z,21.53
2018-12-10T11:56:07.374Z,27.33
2018-12-10T11:58:43.895Z,24.40
2018-12-10T12:01:19.697Z,20.80
2018-12-10T12:03:52.906Z,20.60
2018-12-10T12:06:26.189Z,14.43
2018-12-10T12:08:58.948Z,12.73
2018-12-10T12:11:31.798Z,18.63
2018-12-10T12:14:04.598Z,17.17
2018-12-10T12:16:37.344Z,20.77
2018-12-10T12:19:11.461Z,17.57
2018-12-10T12:21:47.070Z,14.43
2018-12-10T12:24:20.041Z,17.37
2018-12-10T12:26:53.104Z,15.80
2018-12-10T12:29:26.727Z,14.03
2018-12-10T12:31:59.698Z,24.87
2018-12-10T12:34:32.447Z,11.63
2018-12-10T12:37:05.623Z,16.03
2018-12-10T12:39:38.470Z,10.63
2018-12-10T12:42:51.023Z,12.40
2018-12-10T12:45:24.936Z,11.90
2018-12-10T12:47:59.511Z,9.10
2018-12-10T12:50:32.503Z,6.83
2018-12-10T12:53:05.288Z,11.90
2018-12-10T12:55:40.365Z,10.07
2018-12-10T12:58:14.170Z,8.83
2018-12-10T13:00:46.786Z,11.90
2018-12-10T13:03:20.252Z,8.13
2018-12-10T13:05:52.785Z,7.77
2018-12-10T13:08:31.115Z,9.00
2018-12-10T13:11:03.523Z,6.17
2018-12-10T13:13:36.384Z,5.97
2018-12-10T13:16:11.422Z,5.20
2018-12-10T13:18:44.225Z,3.87
2018-12-10T13:21:16.828Z,4.30
2018-12-10T13:23:50.498Z,3.97
2018-12-10T13:26:24.519Z,5.10
2018-12-10T13:28:58.335Z,5.80
2018-12-10T13:31:31.575Z,6.27
2018-12-10T13:34:06.511Z,7.00
2018-12-10T13:36:39.867Z,8.83
2018-12-10T13:39:13.847Z,8.50
2018-12-10T13:41:46.652Z,11.63
2018-12-10T13:44:19.481Z,9.77
2018-12-10T13:46:52.209Z,11.90
2018-12-10T13:49:25.728Z,11.53
2018-12-10T13:51:58.627Z,11.20
2018-12-10T13:54:31.306Z,15.30
2018-12-10T13:57:03.881Z,8.37
2018-12-10T13:59:36.863Z,8.93
2018-12-10T14:02:10.813Z,9.97
2018-12-10T14:04:56.299Z,8.03
2018-12-10T14:07:29.085Z,8.17
2018-12-10T14:10:01.845Z,8.10
2018-12-10T14:12:34.608Z,16.33
2018-12-10T14:15:08.033Z,16.70
2018-12-10T14:17:40.673Z,14.07
2018-12-10T14:20:13.815Z,10.97
2018-12-10T14:22:46.469Z,11.87
2018-12-10T14:25:28.011Z,11.23
2018-12-10T14:28:01.465Z,11.70
2018-12-10T14:30:36.038Z,9.73
2018-12-10T14:36:30.370Z,9.87
2018-12-10T14:39:03.178Z,8.67
2018-12-10T14:41:37.403Z,5.50
2018-12-10T14:44:10.280Z,7.03
2018-12-10T14:46:43.944Z,7.60
2018-12-10T14:49:16.457Z,5.80
2018-12-10T14:51:48.994Z,8.73
2018-12-10T15:08:28.414Z,7.70
2018-12-10T15:11:02.006Z,8.57
2018-12-10T15:13:36.022Z,6.50
2018-12-10T15:16:14.659Z,5.33
2018-12-10T15:25:27.511Z,6.67
2018-12-10T15:28:05.315Z,4.77
2018-12-10T15:33:42.026Z,5.53
2018-12-10T15:36:30.231Z,10.57
2018-12-10T15:39:17.343Z,8.10
2018-12-10T15:48:16.356Z,4.33
2018-12-10T15:50:57.611Z,3.43
2018-12-10T15:53:36.097Z,7.33
2018-12-10T15:56:28.645Z,3.60
2018-12-10T16:02:35.426Z,8.80
2018-12-10T16:05:17.121Z,4.50
2018-12-10T16:07:53.172Z,6.80
2018-12-10T16:10:35.277Z,6.40
2018-12-10T16:13:10.895Z,8.23
2018-12-10T16:15:45.382Z,6.90
2018-12-10T16:18:24.057Z,6.13
2018-12-10T16:20:56.844Z,4.87
2018-12-10T16:23:30.973Z,5.40
2018-12-10T16:26:07.129Z,6.80
2018-12-10T16:28:45.103Z,7.43
2018-12-10T16:31:22.895Z,6.30
2018-12-10T16:36:49.557Z,8.07
2018-12-10T16:39:26.598Z,4.63
2018-12-10T16:41:59.323Z,5.43
2018-12-10T16:44:33.140Z,3.90
2018-12-10T16:52:39.513Z,4.40
2018-12-10T16:55:18.606Z,6.03
2018-12-10T16:57:54.411Z,5.03
2018-12-10T17:00:29.307Z,3.30
2018-12-10T17:03:03.172Z,5.17
2018-12-10T17:05:36.406Z,4.70
2018-12-10T17:08:09.468Z,8.73
2018-12-10T17:10:43.669Z,4.33
2018-12-10T17:13:16.299Z,3.73
2018-12-10T17:15:50.747Z,8.33
2018-12-10T17:18:24.578Z,4.77
2018-12-10T17:20:59.722Z,5.17
2018-12-10T17:23:33.308Z,5.83
2018-12-10T17:26:07.593Z,13.27
2018-12-10T17:28:44.690Z,5.33
2018-12-10T17:31:18.811Z,3.73
2018-12-10T17:33:53.825Z,6.70
2018-12-10T17:36:28.821Z,12.33
2018-12-10T17:42:26.252Z,7.40
2018-12-10T17:45:07.858Z,7.63
2018-12-10T17:47:43.982Z,4.03
2018-12-10T17:50:16.944Z,4.20
2018-12-10T17:52:49.639Z,8.90
2018-12-10T17:55:29.237Z,6.10
2018-12-10T17:58:02.886Z,5.60
2018-12-10T18:00:36.370Z,4.43
2018-12-10T18:03:11.943Z,9.73
2018-12-10T18:05:44.907Z,6.13
2018-12-10T18:08:20.725Z,4.53
2018-12-10T18:10:58.158Z,6.97
2018-12-10T18:13:31.545Z,10.60
2018-12-10T18:16:08.229Z,11.63
2018-12-10T18:18:41.469Z,12.27
2018-12-10T18:21:13.786Z,5.60
2018-12-10T18:23:46.228Z,9.50
2018-12-10T18:26:18.918Z,11.43
2018-12-10T18:28:51.230Z,3.57
2018-12-10T18:31:24.201Z,6.90
2018-12-10T18:34:09.304Z,5.23
2018-12-10T18:36:43.578Z,6.20
2018-12-10T18:42:55.839Z,8.20
2018-12-10T18:45:31.591Z,5.57
2018-12-10T18:48:06.400Z,2.77
2018-12-10T18:50:40.347Z,4.37
2018-12-10T18:53:14.822Z,3.00
2018-12-10T18:55:48.361Z,4.23
2018-12-10T18:58:21.530Z,15.97
2018-12-10T19:00:54.520Z,6.13
2018-12-10T19:03:27.665Z,4.67
2018-12-10T19:06:02.881Z,5.30
2018-12-10T19:08:37.589Z,9.20
2018-12-10T19:11:10.404Z,7.97
2018-12-10T19:13:49.772Z,17.20
2018-12-10T19:16:25.247Z,9.30
2018-12-10T19:19:03.350Z,4.17
2018-12-10T19:24:19.423Z,4.13
2018-12-10T19:26:55.128Z,8.93
2018-12-10T19:29:30.129Z,3.93
2018-12-10T19:32:02.763Z,5.30
2018-12-10T19:34:35.697Z,3.37
2018-12-10T19:37:10.055Z,7.60
2018-12-10T19:39:44.054Z,7.20
2018-12-10T19:42:16.561Z,6.13
2018-12-10T19:44:49.727Z,4.22
2018-12-10T19:47:22.297Z,4.60
2018-12-10T19:53:23.791Z,4.00
2018-12-10T19:56:00.171Z,5.70
2018-12-10T19:58:38.348Z,5.63
2018-12-10T20:01:13.475Z,5.13
2018-12-10T20:03:46.938Z,6.62
2018-12-10T20:06:24.942Z,7.30
2018-12-10T20:08:58.651Z,6.50
2018-12-10T20:16:11.051Z,6.12
2018-12-10T20:18:50.483Z,7.00
2018-12-10T20:24:52.811Z,5.70
2018-12-10T20:27:41.086Z,5.90
2018-12-10T20:30:23.246Z,4.57
2018-12-10T20:33:07.595Z,4.90
2018-12-10T20:35:49.300Z,4.70
2018-12-10T20:38:29.904Z,7.93
2018-12-10T20:41:06.011Z,4.45
2018-12-10T20:43:39.920Z,9.93
2018-12-10T20:46:40.244Z,4.83
2018-12-10T20:49:23.005Z,4.40
2018-12-10T20:52:00.117Z,3.20
2018-12-10T20:54:34.707Z,5.27
2018-12-10T20:57:08.430Z,3.97
2018-12-10T20:59:53.517Z,7.43
2018-12-10T21:02:43.479Z,13.47
2018-12-10T21:05:40.163Z,10.27
2018-12-10T21:08:17.963Z,5.40
2018-12-10T21:10:52.351Z,4.17
2018-12-10T21:13:30.782Z,4.93
2018-12-10T21:16:04.541Z,2.93
2018-12-10T21:18:37.883Z,1.80
2018-12-10T21:21:12.895Z,2.63
2018-12-10T21:23:46.120Z,2.73
2018-12-10T21:26:19.968Z,5.93
2018-12-10T21:28:57.953Z,5.33
2018-12-10T21:31:34.370Z,4.05
2018-12-10T21:34:09.623Z,4.87
2018-12-10T21:36:44.124Z,7.87
2018-12-10T21:39:23.712Z,4.33
2018-12-10T21:42:06.861Z,5.23
2018-12-10T21:44:56.935Z,7.03
2018-12-10T21:47:37.760Z,7.23
2018-12-10T21:53:14.556Z,4.83
2018-12-10T21:55:53.326Z,8.15
2018-12-10T21:58:35.535Z,3.50
2018-12-10T22:01:12.092Z,6.33
2018-12-10T22:03:53.529Z,5.10
2018-12-10T22:09:48.611Z,4.33
2018-12-10T22:18:00.139Z,5.57
2018-12-10T22:20:43.912Z,4.80
2018-12-10T22:37:11.413Z,4.50
2018-12-10T22:39:53.938Z,3.60
2018-12-10T22:42:37.395Z,5.07
2018-12-10T22:47:56.218Z,5.83
2018-12-10T22:50:34.512Z,6.33
2018-12-10T22:55:51.860Z,3.23
2018-12-10T22:58:24.590Z,4.03
2018-12-10T23:03:54.440Z,5.00
2018-12-10T23:06:28.666Z,6.60
2018-12-10T23:09:03.802Z,4.87
2018-12-10T23:14:50.082Z,3.43
2018-12-10T23:17:27.360Z,3.27
2018-12-10T23:20:00.095Z,6.60
2018-12-10T23:22:36.900Z,6.77
2018-12-10T23:25:10.478Z,6.10
2018-12-10T23:27:44.785Z,7.63
2018-12-10T23:30:19.900Z,4.57
2018-12-10T23:33:10.246Z,5.50
2018-12-10T23:35:54.682Z,3.87
2018-12-10T23:38:30.269Z,5.03
2018-12-10T23:41:05.163Z,15.27
2018-12-10T23:44:15.385Z,3.33
2018-12-10T23:51:10.979Z,5.27
2018-12-10T23:54:11.367Z,8.20
2018-12-10T23:56:54.462Z,6.57
